createdAt,value
2018-09-20T00:01:08.501Z,19.20
2018-09-20T00:02:08.821Z,19.25
2018-09-20T00:04:02.009Z,19.28
2018-09-20T00:05:02.168Z,19.18
2018-09-20T00:06:55.516Z,19.28
2018-09-20T00:07:55.166Z,19.20
2018-09-20T00:09:48.761Z,19.28
2018-09-20T00:10:48.514Z,19.25
2018-09-20T00:12:42.961Z,19.20
2018-09-20T00:13:42.388Z,19.28
2018-09-20T00:15:35.835Z,19.24
2018-09-20T00:16:35.735Z,19.28
2018-09-20T00:18:29.089Z,19.31
2018-09-20T00:19:29.075Z,19.21
2018-09-20T00:21:22.681Z,19.25
2018-09-20T00:22:22.420Z,19.25
2018-09-20T00:24:15.763Z,19.33
2018-09-20T00:25:15.751Z,19.25
2018-09-20T00:27:09.323Z,19.25
2018-09-20T00:28:09.426Z,19.29
2018-09-20T00:30:02.479Z,19.31
2018-09-20T00:31:02.438Z,19.31
2018-09-20T00:32:56.397Z,19.28
2018-09-20T00:33:55.787Z,19.25
2018-09-20T00:35:49.013Z,19.33
2018-09-20T00:36:48.653Z,19.35
2018-09-20T00:37:48.643Z,19.35
2018-09-20T00:38:48.633Z,19.31
2018-09-20T00:39:48.952Z,19.31
2018-09-20T00:40:48.617Z,19.33
2018-09-20T00:41:48.634Z,19.31
2018-09-20T00:42:48.618Z,19.35
2018-09-20T00:43:48.610Z,19.28
2018-09-20T00:44:48.586Z,19.28
2018-09-20T00:45:48.908Z,19.31
2018-09-20T00:46:48.563Z,19.36
2018-09-20T00:47:48.554Z,19.40
2018-09-20T00:48:48.881Z,19.28
2018-09-20T00:49:48.538Z,19.31
2018-09-20T00:52:20.750Z,19.32
2018-09-20T00:53:20.570Z,19.35
2018-09-20T00:55:13.931Z,19.35
2018-09-20T00:56:14.254Z,19.31
2018-09-20T00:57:15.867Z,19.39
2018-09-20T00:58:13.936Z,19.36
2018-09-20T00:59:13.893Z,19.36
2018-09-20T01:00:13.881Z,19.35
2018-09-20T01:01:13.874Z,19.32
2018-09-20T01:02:13.872Z,19.38
2018-09-20T01:03:14.204Z,19.40
2018-09-20T01:04:13.873Z,19.35
2018-09-20T01:05:13.836Z,19.35
2018-09-20T01:06:13.825Z,19.35
2018-09-20T01:07:13.821Z,19.38
2018-09-20T01:08:13.813Z,19.33
2018-09-20T01:10:13.822Z,19.38
2018-09-20T01:11:13.786Z,19.36
2018-09-20T01:12:13.790Z,19.36
2018-09-20T01:13:13.776Z,19.38
2018-09-20T01:14:13.769Z,19.42
2018-09-20T01:15:14.088Z,19.36
2018-09-20T01:16:13.746Z,19.35
2018-09-20T01:17:13.737Z,19.33
2018-09-20T01:18:13.731Z,19.39
2018-09-20T01:19:13.712Z,19.39
2018-09-20T01:20:13.710Z,19.38
2018-09-20T01:21:13.730Z,19.35
2018-09-20T01:23:45.987Z,19.38
2018-09-20T01:24:45.802Z,19.47
2018-09-20T01:26:39.549Z,19.39
2018-09-20T01:27:39.098Z,19.47
2018-09-20T01:29:32.648Z,19.47
2018-09-20T01:30:32.442Z,19.46
2018-09-20T01:32:25.789Z,19.36
2018-09-20T01:33:25.782Z,19.42
2018-09-20T01:35:19.376Z,19.47
2018-09-20T01:36:19.112Z,19.46
2018-09-20T01:38:12.562Z,19.42
2018-09-20T01:39:12.459Z,19.42
2018-09-20T01:41:06.447Z,19.39
2018-09-20T01:42:06.136Z,19.46
2018-09-20T01:43:05.805Z,19.42
2018-09-20T01:44:05.792Z,19.39
2018-09-20T01:45:05.781Z,19.36
2018-09-20T01:46:06.100Z,19.43
2018-09-20T01:47:05.764Z,19.50
2018-09-20T01:48:06.085Z,19.40
2018-09-20T01:49:05.768Z,19.47
2018-09-20T01:50:05.734Z,19.39
2018-09-20T01:51:05.729Z,19.46
2018-09-20T01:52:06.048Z,19.40
2018-09-20T01:54:38.200Z,19.48
2018-09-20T01:55:37.751Z,19.39
2018-09-20T01:56:37.748Z,19.40
2018-09-20T01:57:37.738Z,19.39
2018-09-20T01:58:38.068Z,19.51
2018-09-20T01:59:37.732Z,19.43
2018-09-20T02:00:37.720Z,19.48
2018-09-20T02:01:37.740Z,19.40
2018-09-20T02:02:38.030Z,19.43
2018-09-20T02:03:37.689Z,19.40
2018-09-20T02:04:38.010Z,19.48
2018-09-20T02:05:37.672Z,19.42
2018-09-20T02:06:37.656Z,19.43
2018-09-20T02:07:37.985Z,19.47
2018-09-20T02:08:37.977Z,19.42
2018-09-20T02:09:37.974Z,19.33
2018-09-20T02:10:37.630Z,19.48
2018-09-20T02:11:37.950Z,19.42
2018-09-20T02:12:37.607Z,19.47
2018-09-20T02:13:37.599Z,19.36
2018-09-20T02:14:37.584Z,19.39
2018-09-20T02:15:37.602Z,19.39
2018-09-20T02:16:37.569Z,19.50
2018-09-20T02:17:37.587Z,19.53
2018-09-20T02:18:37.888Z,19.48
2018-09-20T02:19:37.571Z,19.46
2018-09-20T02:20:37.542Z,19.46
2018-09-20T02:21:37.887Z,19.50
2018-09-20T02:22:37.521Z,19.43
2018-09-20T02:23:37.507Z,19.51
2018-09-20T02:24:37.536Z,19.42
2018-09-20T02:25:37.498Z,19.54
2018-09-20T02:26:37.833Z,19.46
2018-09-20T02:27:37.486Z,19.55
2018-09-20T02:28:37.824Z,19.43
2018-09-20T02:29:37.461Z,19.50
2018-09-20T02:30:37.463Z,19.57
2018-09-20T02:31:37.440Z,19.55
2018-09-20T02:32:37.791Z,19.48
2018-09-20T02:33:37.431Z,19.43
2018-09-20T02:34:37.420Z,19.47
2018-09-20T02:35:37.745Z,19.48
2018-09-20T02:36:37.736Z,19.50
2018-09-20T02:37:37.393Z,19.50
2018-09-20T02:38:37.718Z,19.48
2018-09-20T02:39:37.384Z,19.39
2018-09-20T02:40:37.396Z,19.43
2018-09-20T02:41:37.359Z,19.55
2018-09-20T02:42:37.381Z,19.46
2018-09-20T02:43:37.697Z,19.48
2018-09-20T02:44:37.327Z,19.47
2018-09-20T02:45:37.327Z,19.50
2018-09-20T02:46:37.318Z,19.46
2018-09-20T02:47:37.659Z,19.48
2018-09-20T02:48:37.303Z,19.48
2018-09-20T02:49:37.292Z,19.46
2018-09-20T02:50:37.618Z,19.47
2018-09-20T02:51:37.299Z,19.50
2018-09-20T02:52:37.264Z,19.47
2018-09-20T02:53:37.251Z,19.46
2018-09-20T02:54:37.585Z,19.48
2018-09-20T02:55:37.241Z,19.53
2018-09-20T02:56:37.227Z,19.51
2018-09-20T02:57:37.221Z,19.51
2018-09-20T02:58:37.211Z,19.47
2018-09-20T02:59:37.208Z,19.50
2018-09-20T03:00:37.192Z,19.46
2018-09-20T03:01:37.186Z,19.48
2018-09-20T03:02:37.518Z,19.50
2018-09-20T03:03:37.183Z,19.39
2018-09-20T03:04:37.164Z,19.50
2018-09-20T03:05:37.488Z,19.47
2018-09-20T03:06:37.141Z,19.43
2018-09-20T03:07:37.132Z,19.43
2018-09-20T03:08:37.147Z,19.53
2018-09-20T03:09:37.142Z,19.50
2018-09-20T03:10:37.108Z,19.48
2018-09-20T03:11:37.440Z,19.54
2018-09-20T03:12:37.134Z,19.51
2018-09-20T03:15:13.003Z,19.48
2018-09-20T03:16:09.134Z,19.53
2018-09-20T03:17:09.125Z,19.51
2018-09-20T03:18:09.118Z,19.51
2018-09-20T03:19:09.109Z,19.57
2018-09-20T03:20:09.118Z,19.48
2018-09-20T03:21:09.427Z,19.53
2018-09-20T03:22:09.434Z,19.51
2018-09-20T03:23:09.071Z,19.57
2018-09-20T03:24:09.417Z,19.54
2018-09-20T03:25:09.068Z,19.54
2018-09-20T03:26:09.052Z,19.60
2018-09-20T03:27:09.038Z,19.55
2018-09-20T03:28:09.363Z,19.55
2018-09-20T03:29:09.017Z,19.57
2018-09-20T03:30:09.032Z,19.60
2018-09-20T03:31:09.003Z,19.60
2018-09-20T03:32:09.006Z,19.57
2018-09-20T03:33:09.327Z,19.60
2018-09-20T03:34:08.975Z,19.57
2018-09-20T03:35:09.307Z,19.60
2018-09-20T03:36:08.965Z,19.63
2018-09-20T03:37:08.956Z,19.60
2018-09-20T03:38:08.947Z,19.60
2018-09-20T03:39:08.943Z,19.61
2018-09-20T03:41:40.726Z,19.61
2018-09-20T03:42:40.499Z,19.55
2018-09-20T03:44:33.853Z,19.58
2018-09-20T03:45:33.836Z,19.54
2018-09-20T03:47:27.517Z,19.53
2018-09-20T03:48:27.182Z,19.50
2018-09-20T03:50:20.531Z,19.53
2018-09-20T03:51:20.530Z,19.55
2018-09-20T03:53:14.376Z,19.50
2018-09-20T03:54:13.883Z,19.53
2018-09-20T03:56:07.372Z,19.58
2018-09-20T03:57:07.384Z,19.53
2018-09-20T03:59:04.673Z,19.57
2018-09-20T04:00:00.706Z,19.50
2018-09-20T04:01:54.141Z,19.57
2018-09-20T04:02:54.048Z,19.58
2018-09-20T04:04:47.720Z,19.51
2018-09-20T04:05:47.404Z,19.54
2018-09-20T04:07:41.085Z,19.58
2018-09-20T04:08:40.756Z,19.54
2018-09-20T04:09:40.789Z,19.54
2018-09-20T04:12:13.050Z,19.53
2018-09-20T04:13:12.753Z,19.60
2018-09-20T04:15:06.117Z,19.53
2018-09-20T04:16:06.129Z,19.55
2018-09-20T04:17:59.670Z,19.55
2018-09-20T04:18:59.456Z,19.50
2018-09-20T04:19:59.780Z,19.55
2018-09-20T04:20:59.451Z,19.61
2018-09-20T04:21:59.762Z,19.58
2018-09-20T04:22:59.749Z,19.57
2018-09-20T04:23:59.400Z,19.51
2018-09-20T04:24:59.426Z,19.58
2018-09-20T04:25:59.385Z,19.58
2018-09-20T04:26:59.375Z,19.57
2018-09-20T04:27:59.378Z,19.51
2018-09-20T04:28:59.362Z,19.60
2018-09-20T04:29:59.353Z,19.54
2018-09-20T04:30:59.338Z,19.55
2018-09-20T04:31:59.334Z,19.53
2018-09-20T04:32:59.332Z,19.48
2018-09-20T04:33:59.657Z,19.58
2018-09-20T04:34:59.317Z,19.57
2018-09-20T04:35:59.301Z,19.57
2018-09-20T04:36:59.304Z,19.61
2018-09-20T04:37:59.638Z,19.58
2018-09-20T04:38:59.276Z,19.60
2018-09-20T04:39:59.284Z,19.60
2018-09-20T04:40:59.259Z,19.55
2018-09-20T04:41:59.248Z,19.60
2018-09-20T04:44:31.867Z,19.54
2018-09-20T04:45:31.322Z,19.63
2018-09-20T04:47:24.649Z,19.68
2018-09-20T04:48:25.001Z,19.57
2018-09-20T04:49:24.625Z,19.58
2018-09-20T04:50:24.618Z,19.61
2018-09-20T04:51:24.627Z,19.61
2018-09-20T04:52:24.616Z,19.68
2018-09-20T04:53:24.662Z,19.65
2018-09-20T04:54:24.592Z,19.58
2018-09-20T04:55:24.574Z,19.60
2018-09-20T04:56:24.565Z,19.69
2018-09-20T04:57:24.918Z,19.60
2018-09-20T04:58:24.546Z,19.61
2018-09-20T04:59:24.548Z,19.69
2018-09-20T05:00:24.537Z,19.70
2018-09-20T05:01:25.236Z,19.70
2018-09-20T05:02:24.863Z,19.60
2018-09-20T05:03:24.508Z,19.69
2018-09-20T05:04:24.493Z,19.63
2018-09-20T05:05:24.517Z,19.61
2018-09-20T05:06:24.488Z,19.61
2018-09-20T05:08:56.844Z,19.60
2018-09-20T05:09:56.857Z,19.65
2018-09-20T05:11:49.395Z,19.63
2018-09-20T05:12:49.718Z,19.66
2018-09-20T05:14:46.968Z,19.57
2018-09-20T05:15:43.267Z,19.65
2018-09-20T05:17:36.950Z,19.61
2018-09-20T05:18:36.609Z,19.58
2018-09-20T05:20:30.142Z,19.60
2018-09-20T05:21:30.295Z,19.66
2018-09-20T05:23:23.949Z,19.65
2018-09-20T05:24:23.282Z,19.68
2018-09-20T05:26:16.863Z,19.69
2018-09-20T05:27:16.623Z,19.63
2018-09-20T05:29:09.501Z,19.65
2018-09-20T05:30:09.829Z,19.65
2018-09-20T05:32:03.191Z,19.73
2018-09-20T05:33:02.882Z,19.69
2018-09-20T05:34:56.521Z,19.68
2018-09-20T05:35:56.174Z,19.68
2018-09-20T05:37:49.378Z,19.68
2018-09-20T05:38:49.045Z,19.68
2018-09-20T05:40:42.403Z,19.68
2018-09-20T05:41:42.707Z,19.72
2018-09-20T05:43:36.031Z,19.68
2018-09-20T05:44:35.743Z,19.68
2018-09-20T05:46:29.450Z,19.63
2018-09-20T05:47:29.107Z,19.69
2018-09-20T05:49:23.059Z,19.70
2018-09-20T05:50:22.431Z,19.65
2018-09-20T05:52:15.903Z,19.70
2018-09-20T05:53:15.771Z,19.72
2018-09-20T05:56:09.485Z,19.61
2018-09-20T05:58:02.851Z,19.65
2018-09-20T05:59:02.540Z,19.69
2018-09-20T06:00:56.099Z,19.63
2018-09-20T06:01:55.842Z,19.63
2018-09-20T06:03:49.644Z,19.70
2018-09-20T06:04:49.182Z,19.72
2018-09-20T06:06:43.064Z,19.66
2018-09-20T06:07:42.818Z,19.69
2018-09-20T06:09:36.274Z,19.63
2018-09-20T06:10:36.170Z,19.70
2018-09-20T06:12:29.715Z,19.73
2018-09-20T06:15:02.024Z,19.73
2018-09-20T06:16:01.568Z,19.65
2018-09-20T06:17:55.163Z,19.73
2018-09-20T06:18:54.938Z,19.66
2018-09-20T06:20:48.293Z,19.63
2018-09-20T06:21:48.709Z,19.70
2018-09-20T06:23:41.958Z,19.68
2018-09-20T06:24:41.990Z,19.68
2018-09-20T06:26:35.599Z,19.63
2018-09-20T06:27:35.343Z,19.70
2018-09-20T06:29:28.881Z,19.68
2018-09-20T06:30:28.338Z,19.63
2018-09-20T06:32:21.680Z,19.58
2018-09-20T06:33:21.707Z,19.55
2018-09-20T06:35:15.236Z,19.57
2018-09-20T06:36:15.032Z,19.57
2018-09-20T06:38:08.390Z,19.58
2018-09-20T06:39:08.378Z,19.66
2018-09-20T06:41:02.534Z,19.65
2018-09-20T06:42:02.098Z,19.60
2018-09-20T06:43:55.446Z,19.63
2018-09-20T06:44:55.442Z,19.60
2018-09-20T06:46:49.180Z,19.66
2018-09-20T06:47:48.783Z,19.60
2018-09-20T06:49:42.235Z,19.66
2018-09-20T06:50:42.127Z,19.60
2018-09-20T06:52:35.624Z,19.57
2018-09-20T06:53:35.475Z,19.60
2018-09-20T06:55:29.436Z,19.60
2018-09-20T06:56:28.852Z,19.58
2018-09-20T06:58:23.004Z,19.58
2018-09-20T06:59:22.490Z,19.60
2018-09-20T07:01:15.601Z,19.60
2018-09-20T07:02:15.514Z,19.58
2018-09-20T07:03:15.525Z,19.58
2018-09-20T07:04:15.849Z,19.68
2018-09-20T07:05:15.489Z,19.58
2018-09-20T07:06:15.489Z,19.54
2018-09-20T07:07:15.830Z,19.57
2018-09-20T07:08:15.818Z,19.57
2018-09-20T07:09:15.450Z,19.68
2018-09-20T07:10:15.798Z,19.65
2018-09-20T07:11:15.487Z,19.68
2018-09-20T07:12:15.444Z,19.66
2018-09-20T07:13:15.426Z,19.57
2018-09-20T07:14:15.452Z,19.60
2018-09-20T07:15:15.734Z,19.68
2018-09-20T07:17:48.537Z,19.60
2018-09-20T07:18:47.978Z,19.66
2018-09-20T07:20:41.320Z,19.57
2018-09-20T07:21:41.310Z,19.66
2018-09-20T07:23:38.773Z,19.55
2018-09-20T07:24:34.659Z,19.57
2018-09-20T07:26:28.042Z,19.60
2018-09-20T07:27:28.020Z,19.57
2018-09-20T07:29:21.466Z,19.57
2018-09-20T07:30:21.368Z,19.55
2018-09-20T07:32:15.056Z,19.53
2018-09-20T07:33:15.067Z,19.55
2018-09-20T07:35:08.384Z,19.55
2018-09-20T07:36:08.057Z,19.60
2018-09-20T07:38:01.412Z,19.55
2018-09-20T07:39:01.405Z,19.53
2018-09-20T07:40:54.972Z,19.58
2018-09-20T07:41:54.749Z,19.60
2018-09-20T07:43:48.205Z,19.54
2018-09-20T07:44:47.616Z,19.47
2018-09-20T07:48:13.672Z,19.48
2018-09-20T07:49:13.016Z,19.53
2018-09-20T07:51:06.376Z,19.42
2018-09-20T07:52:06.356Z,19.39
2018-09-20T07:54:00.276Z,19.39
2018-09-20T07:54:59.707Z,19.39
2018-09-20T07:56:53.096Z,19.47
2018-09-20T07:57:53.347Z,19.38
2018-09-20T07:59:46.603Z,19.46
2018-09-20T08:00:46.405Z,19.39
2018-09-20T08:02:40.085Z,19.42
2018-09-20T08:03:39.717Z,19.36
2018-09-20T08:05:33.741Z,19.48
2018-09-20T08:06:33.064Z,19.48
2018-09-20T08:08:26.425Z,19.39
2018-09-20T08:09:26.429Z,19.39
2018-09-20T08:11:19.957Z,19.39
2018-09-20T08:12:19.760Z,19.38
2018-09-20T08:14:13.473Z,19.35
2018-09-20T08:15:13.106Z,19.38
2018-09-20T08:17:06.772Z,19.43
2018-09-20T08:18:06.448Z,19.40
2018-09-20T08:19:59.822Z,19.40
2018-09-20T08:20:59.787Z,19.40
2018-09-20T08:22:53.452Z,19.42
2018-09-20T08:23:53.125Z,19.38
2018-09-20T08:25:46.811Z,19.48
2018-09-20T08:26:46.835Z,19.43
2018-09-20T08:28:40.268Z,19.35
2018-09-20T08:29:40.145Z,19.40
2018-09-20T08:31:33.515Z,19.46
2018-09-20T08:32:33.149Z,19.40
2018-09-20T08:34:26.720Z,19.46
2018-09-20T08:35:26.485Z,19.40
2018-09-20T08:37:20.002Z,19.42
2018-09-20T08:38:19.846Z,19.40
2018-09-20T08:40:13.440Z,19.31
2018-09-20T08:41:13.175Z,19.42
2018-09-20T08:43:06.526Z,19.42
2018-09-20T08:44:06.856Z,19.39
2018-09-20T08:46:00.672Z,19.39
2018-09-20T08:46:59.865Z,19.42
2018-09-20T08:48:53.218Z,19.42
2018-09-20T08:49:53.224Z,19.53
2018-09-20T08:51:46.633Z,19.43
2018-09-20T08:52:46.403Z,19.42
2018-09-20T08:54:39.422Z,19.40
2018-09-20T08:55:39.407Z,19.38
2018-09-20T08:57:36.305Z,19.42
2018-09-20T08:58:32.742Z,19.39
2018-09-20T09:01:58.153Z,19.42
2018-09-20T09:02:58.150Z,19.43
2018-09-20T09:04:52.093Z,19.47
2018-09-20T09:05:52.180Z,19.42
2018-09-20T09:07:45.197Z,19.43
2018-09-20T09:08:45.518Z,19.39
2018-09-20T09:10:38.720Z,19.42
2018-09-20T09:13:31.931Z,19.46
2018-09-20T09:14:31.912Z,19.42
2018-09-20T09:16:25.527Z,19.42
2018-09-20T09:17:25.259Z,19.46
2018-09-20T09:19:20.211Z,19.47
2018-09-20T09:20:19.466Z,19.47
2018-09-20T09:22:12.695Z,19.46
2018-09-20T09:23:12.475Z,19.46
2018-09-20T09:25:05.829Z,19.39
2018-09-20T09:26:05.816Z,19.47
2018-09-20T09:27:59.376Z,19.40
2018-09-20T09:28:59.189Z,19.46
2018-09-20T09:30:52.601Z,19.38
2018-09-20T09:33:24.683Z,19.32
2018-09-20T09:34:24.605Z,19.43
2018-09-20T09:36:18.280Z,19.43
2018-09-20T09:37:17.971Z,19.50
2018-09-20T09:39:11.506Z,19.40
2018-09-20T09:40:11.311Z,19.47
2018-09-20T09:42:04.663Z,19.42
2018-09-20T09:43:04.617Z,19.42
2018-09-20T09:44:58.510Z,19.39
2018-09-20T09:45:57.955Z,19.42
2018-09-20T09:47:51.433Z,19.43
2018-09-20T09:48:51.311Z,19.38
2018-09-20T09:50:45.206Z,19.39
2018-09-20T09:51:44.654Z,19.39
2018-09-20T09:53:38.362Z,19.50
2018-09-20T09:54:38.011Z,19.48
2018-09-20T09:56:31.515Z,19.50
2018-09-20T09:57:31.681Z,19.39
2018-09-20T09:59:25.074Z,19.40
2018-09-20T10:00:25.052Z,19.38
2018-09-20T10:02:18.284Z,19.39
2018-09-20T10:03:18.048Z,19.39
2018-09-20T10:05:11.397Z,19.47
2018-09-20T10:06:11.713Z,19.46
2018-09-20T10:08:05.540Z,19.42
2018-09-20T10:09:04.729Z,19.39
2018-09-20T10:10:58.155Z,19.39
2018-09-20T10:11:58.148Z,19.43
2018-09-20T10:13:51.753Z,19.39
2018-09-20T10:14:51.829Z,19.39
2018-09-20T10:16:45.431Z,19.42
2018-09-20T10:17:44.824Z,19.33
2018-09-20T10:19:38.472Z,19.35
2018-09-20T10:20:38.522Z,19.38
2018-09-20T10:22:31.516Z,19.46
2018-09-20T10:23:31.513Z,19.42
2018-09-20T10:25:25.416Z,19.39
2018-09-20T10:26:24.859Z,19.47
2018-09-20T10:28:18.209Z,19.42
2018-09-20T10:29:18.209Z,19.39
2018-09-20T10:31:15.898Z,19.42
2018-09-20T10:32:11.541Z,19.46
2018-09-20T10:34:04.959Z,19.39
2018-09-20T10:35:04.873Z,19.39
2018-09-20T10:37:01.671Z,19.42
2018-09-20T10:37:58.221Z,19.51
2018-09-20T10:39:51.574Z,19.40
2018-09-20T10:40:51.553Z,19.42
2018-09-20T10:42:45.730Z,19.39
2018-09-20T10:43:45.287Z,19.43
2018-09-20T10:45:38.288Z,19.47
2018-09-20T10:46:38.633Z,19.38
2018-09-20T10:48:32.189Z,19.38
2018-09-20T10:49:31.619Z,19.35
2018-09-20T10:51:24.963Z,19.39
2018-09-20T10:52:24.951Z,19.33
2018-09-20T10:54:18.531Z,19.38
2018-09-20T10:55:18.302Z,19.31
2018-09-20T10:57:11.659Z,19.35
2018-09-20T10:58:11.638Z,19.36
2018-09-20T11:00:05.164Z,19.35
2018-09-20T11:01:04.982Z,19.35
2018-09-20T11:02:58.384Z,19.31
2018-09-20T11:03:58.335Z,19.31
2018-09-20T11:05:55.720Z,19.28
2018-09-20T11:06:51.669Z,19.31
2018-09-20T11:08:45.019Z,19.24
2018-09-20T11:09:45.010Z,19.25
2018-09-20T11:11:38.592Z,19.21
2018-09-20T11:12:38.341Z,19.18
2018-09-20T11:14:32.035Z,19.25
2018-09-20T11:15:31.719Z,19.23
2018-09-20T11:17:25.269Z,19.23
2018-09-20T11:18:25.035Z,19.18
2018-09-20T11:20:18.916Z,19.28
2018-09-20T11:21:18.916Z,19.23
2018-09-20T11:22:19.233Z,19.17
2018-09-20T11:23:18.891Z,19.21
2018-09-20T11:24:18.886Z,19.20
2018-09-20T11:25:18.872Z,19.23
2018-09-20T11:26:18.868Z,19.20
2018-09-20T11:27:18.873Z,19.25
2018-09-20T11:28:18.855Z,19.13
2018-09-20T11:29:18.834Z,19.17
2018-09-20T11:30:18.842Z,19.18
2018-09-20T11:31:18.818Z,19.23
2018-09-20T11:32:18.823Z,19.23
2018-09-20T11:33:18.805Z,19.20
2018-09-20T11:34:18.827Z,19.14
2018-09-20T11:35:18.787Z,19.23
2018-09-20T11:36:18.791Z,19.17
2018-09-20T11:37:18.780Z,19.21
2018-09-20T11:38:18.758Z,19.15
2018-09-20T11:39:18.760Z,19.21
2018-09-20T11:40:18.740Z,19.21
2018-09-20T11:41:18.733Z,19.21
2018-09-20T11:42:19.080Z,19.18
2018-09-20T11:43:18.752Z,19.17
2018-09-20T11:44:18.715Z,19.14
2018-09-20T11:45:18.703Z,19.13
2018-09-20T11:46:18.688Z,19.21
2018-09-20T11:47:18.687Z,19.14
2018-09-20T11:48:18.674Z,19.14
2018-09-20T11:49:18.675Z,19.13
2018-09-20T11:50:18.676Z,19.13
2018-09-20T11:51:18.679Z,19.15
2018-09-20T11:52:18.654Z,19.15
2018-09-20T11:53:19.485Z,19.15
2018-09-20T11:54:18.627Z,19.13
2018-09-20T11:55:18.619Z,19.13
2018-09-20T11:56:18.935Z,19.13
2018-09-20T11:57:18.601Z,19.20
2018-09-20T11:58:18.591Z,19.24
2018-09-20T11:59:18.935Z,19.15
2018-09-20T12:00:18.601Z,19.17
2018-09-20T12:01:18.578Z,19.15
2018-09-20T12:02:18.892Z,19.13
2018-09-20T12:03:18.553Z,19.17
2018-09-20T12:04:18.532Z,19.13
2018-09-20T12:05:18.536Z,19.15
2018-09-20T12:06:18.527Z,19.10
2018-09-20T12:07:18.542Z,19.13
2018-09-20T12:08:18.835Z,19.15
2018-09-20T12:09:18.504Z,19.08
2018-09-20T12:10:18.500Z,19.13
2018-09-20T12:11:18.815Z,19.11
2018-09-20T12:12:18.802Z,19.18
2018-09-20T12:13:18.793Z,19.13
2018-09-20T12:14:18.445Z,19.20
2018-09-20T12:15:18.782Z,19.13
2018-09-20T12:16:18.481Z,19.18
2018-09-20T12:17:18.759Z,19.13
2018-09-20T12:18:18.413Z,19.14
2018-09-20T12:19:18.757Z,19.17
2018-09-20T12:20:18.784Z,19.18
2018-09-20T12:21:18.385Z,19.15
2018-09-20T12:22:18.379Z,19.11
2018-09-20T12:23:18.702Z,19.06
2018-09-20T12:24:18.702Z,19.06
2018-09-20T12:25:18.687Z,19.11
2018-09-20T12:26:18.379Z,19.14
2018-09-20T12:27:18.362Z,19.14
2018-09-20T12:28:18.336Z,19.08
2018-09-20T12:29:18.326Z,19.18
2018-09-20T12:30:18.657Z,19.11
2018-09-20T12:31:18.303Z,19.14
2018-09-20T12:32:18.636Z,19.14
2018-09-20T12:33:18.291Z,19.08
2018-09-20T12:34:18.274Z,19.11
2018-09-20T12:35:18.289Z,19.14
2018-09-20T12:36:18.263Z,19.11
2018-09-20T12:37:18.253Z,19.14
2018-09-20T12:38:18.580Z,19.14
2018-09-20T12:39:18.233Z,19.08
2018-09-20T12:40:18.213Z,19.13
2018-09-20T12:41:18.215Z,19.11
2018-09-20T12:42:18.198Z,19.10
2018-09-20T12:43:18.539Z,19.15
2018-09-20T12:44:18.541Z,19.10
2018-09-20T12:45:18.181Z,19.11
2018-09-20T12:46:18.171Z,19.14
2018-09-20T12:47:18.496Z,19.11
2018-09-20T12:48:18.510Z,19.17
2018-09-20T12:49:18.174Z,19.08
2018-09-20T12:50:18.146Z,19.11
2018-09-20T12:51:18.124Z,19.08
2018-09-20T12:52:18.116Z,19.10
2018-09-20T12:53:18.111Z,19.14
2018-09-20T12:54:18.098Z,19.10
2018-09-20T12:55:18.448Z,19.11
2018-09-20T12:56:18.434Z,19.11
2018-09-20T12:57:18.108Z,19.10
2018-09-20T12:58:18.059Z,19.14
2018-09-20T12:59:18.057Z,19.08
2018-09-20T13:00:18.381Z,19.06
2018-09-20T13:01:18.045Z,19.13
2018-09-20T13:02:18.064Z,19.08
2018-09-20T13:03:18.046Z,19.13
2018-09-20T13:04:18.011Z,19.08
2018-09-20T13:05:18.337Z,19.14
2018-09-20T13:06:17.996Z,19.05
2018-09-20T13:07:18.318Z,19.17
2018-09-20T13:08:17.978Z,19.13
2018-09-20T13:09:17.971Z,19.10
2018-09-20T13:10:17.962Z,19.08
2018-09-20T13:11:17.945Z,19.02
2018-09-20T13:12:18.279Z,19.02
2018-09-20T13:13:18.272Z,19.14
2018-09-20T13:14:17.926Z,19.15
2018-09-20T13:15:17.908Z,19.02
2018-09-20T13:16:17.939Z,19.11
2018-09-20T13:17:17.901Z,19.08
2018-09-20T13:18:17.890Z,19.02
2018-09-20T13:19:17.906Z,18.98
2018-09-20T13:20:17.934Z,19.05
2018-09-20T13:21:17.891Z,18.99
2018-09-20T13:22:18.191Z,19.05
2018-09-20T13:23:17.846Z,19.02
2018-09-20T13:24:17.829Z,19.01
2018-09-20T13:25:17.924Z,19.10
2018-09-20T13:26:17.820Z,19.05
2018-09-20T13:27:18.165Z,18.99
2018-09-20T13:28:17.808Z,18.99
2018-09-20T13:29:18.125Z,18.90
2018-09-20T13:30:17.781Z,18.98
2018-09-20T13:31:17.783Z,18.99
2018-09-20T13:32:17.807Z,19.06
2018-09-20T13:33:17.754Z,19.01
2018-09-20T13:34:17.749Z,18.99
2018-09-20T13:35:17.753Z,19.05
2018-09-20T13:36:17.728Z,18.99
2018-09-20T13:37:17.805Z,19.02
2018-09-20T13:38:17.719Z,19.06
2018-09-20T13:39:17.708Z,18.99
2018-09-20T13:40:17.711Z,19.01
2018-09-20T13:41:17.712Z,19.02
2018-09-20T13:42:17.679Z,19.01
2018-09-20T13:43:17.718Z,19.02
2018-09-20T13:44:17.656Z,18.94
2018-09-20T13:45:17.651Z,18.97
2018-09-20T13:46:17.644Z,19.02
2018-09-20T13:47:17.635Z,18.99
2018-09-20T13:48:17.624Z,19.01
2018-09-20T13:49:17.623Z,18.99
2018-09-20T13:50:17.619Z,18.97
2018-09-20T13:51:17.940Z,18.95
2018-09-20T13:52:17.586Z,19.01
2018-09-20T13:53:17.576Z,19.01
2018-09-20T13:54:17.572Z,19.02
2018-09-20T13:55:17.594Z,19.05
2018-09-20T13:56:17.569Z,19.02
2018-09-20T13:57:17.886Z,18.98
2018-09-20T13:58:17.546Z,19.02
2018-09-20T13:59:17.531Z,18.94
2018-09-20T14:00:17.857Z,18.99
2018-09-20T14:01:17.521Z,19.02
2018-09-20T14:02:17.831Z,18.98
2018-09-20T14:03:17.495Z,19.01
2018-09-20T14:04:17.512Z,18.98
2018-09-20T14:05:17.480Z,19.01
2018-09-20T14:06:17.470Z,18.98
2018-09-20T14:07:17.800Z,19.01
2018-09-20T14:08:17.802Z,19.02
2018-09-20T14:09:17.443Z,18.99
2018-09-20T14:10:17.444Z,18.97
2018-09-20T14:11:17.459Z,18.97
2018-09-20T14:12:17.421Z,18.99
2018-09-20T14:13:17.421Z,18.98
2018-09-20T14:14:17.396Z,18.99
2018-09-20T14:15:17.434Z,19.02
2018-09-20T14:16:17.392Z,19.02
2018-09-20T14:17:17.714Z,19.02
2018-09-20T14:18:17.367Z,18.98
2018-09-20T14:19:17.694Z,18.97
2018-09-20T14:20:17.678Z,19.11
2018-09-20T14:21:17.673Z,18.95
2018-09-20T14:22:17.680Z,18.99
2018-09-20T14:23:17.656Z,18.99
2018-09-20T14:24:17.305Z,18.99
2018-09-20T14:25:17.636Z,18.97
2018-09-20T14:26:17.297Z,18.98
2018-09-20T14:27:17.287Z,18.99
2018-09-20T14:28:17.636Z,18.92
2018-09-20T14:29:17.614Z,18.94
2018-09-20T14:30:17.265Z,19.06
2018-09-20T14:31:17.254Z,18.92
2018-09-20T14:32:17.247Z,18.92
2018-09-20T14:33:17.578Z,18.99
2018-09-20T14:34:17.577Z,18.94
2018-09-20T14:35:17.553Z,18.95
2018-09-20T14:36:17.209Z,18.98
2018-09-20T14:37:17.200Z,18.98
2018-09-20T14:38:17.540Z,18.95
2018-09-20T14:39:17.200Z,18.90
2018-09-20T14:40:17.168Z,18.95
2018-09-20T14:41:17.163Z,18.90
2018-09-20T14:42:17.173Z,18.97
2018-09-20T14:43:17.484Z,18.90
2018-09-20T14:44:17.188Z,18.98
2018-09-20T14:45:17.507Z,18.94
2018-09-20T14:46:17.121Z,18.87
2018-09-20T14:47:17.111Z,18.92
2018-09-20T14:48:17.128Z,18.90
2018-09-20T14:49:17.427Z,18.97
2018-09-20T14:50:17.116Z,18.94
2018-09-20T14:51:17.424Z,19.02
2018-09-20T14:52:17.067Z,18.92
2018-09-20T14:53:17.055Z,18.95
2018-09-20T14:54:17.050Z,18.95
2018-09-20T14:55:17.040Z,18.92
2018-09-20T14:56:17.044Z,18.95
2018-09-20T14:57:17.066Z,18.95
2018-09-20T14:58:17.026Z,18.94
2018-09-20T14:59:17.003Z,18.95
2018-09-20T15:00:16.991Z,18.92
2018-09-20T15:01:16.991Z,18.97
2018-09-20T15:02:16.988Z,18.92
2018-09-20T15:03:16.999Z,18.94
2018-09-20T15:04:17.293Z,18.87
2018-09-20T15:05:16.948Z,18.97
2018-09-20T15:06:17.276Z,18.97
2018-09-20T15:07:16.950Z,18.98
2018-09-20T15:08:17.007Z,18.87
2018-09-20T15:09:16.924Z,18.86
2018-09-20T15:10:17.262Z,18.97
2018-09-20T15:11:16.944Z,18.94
2018-09-20T15:12:16.911Z,18.84
2018-09-20T15:13:17.218Z,18.92
2018-09-20T15:14:17.205Z,18.97
2018-09-20T15:15:16.930Z,18.95
2018-09-20T15:16:16.876Z,18.97
2018-09-20T15:17:17.198Z,18.95
2018-09-20T15:18:16.848Z,18.94
2018-09-20T15:19:16.824Z,18.91
2018-09-20T15:20:16.821Z,18.95
2018-09-20T15:21:17.142Z,18.97
2018-09-20T15:22:16.798Z,18.87
2018-09-20T15:23:16.792Z,18.92
2018-09-20T15:24:16.785Z,18.94
2018-09-20T15:25:16.777Z,18.87
2018-09-20T15:26:17.100Z,18.95
2018-09-20T15:27:17.119Z,18.95
2018-09-20T15:28:17.088Z,18.83
2018-09-20T15:29:16.790Z,18.90
2018-09-20T15:30:17.063Z,18.90